ZPPP/KMG METAR and TAF weather

Enter ICAO airport designator
Station Type Date Time Source
ZPPP METAR 2022/07/01 01:00 UTC NOAA

ZPPP 010100Z 03004MPS 9999 SCT016 BKN036 17/16 Q1018 NOSIG


Station Type Date Time Source
ZPPP Decoded METAR 2022/07/01 01:00 UTC NOAA

Kunming, China (ZPPP) 25-01N 102-41E 1892M
Jun 30, 2022 - 09:00 PM EDT / 2022.07.01 0100 UTC
Wind: from the NNE (030 degrees) at 9 MPH (8 KT):0
Visibility: greater than 7 mile(s):0
Sky conditions: mostly cloudy
Temperature: 62 F (17 C)
Dew Point: 60 F (16 C)
Relative Humidity: 93%
Pressure (altimeter): 30.06 in. Hg (1018 hPa)
ob: ZPPP 010100Z 03004MPS 9999 SCT016 BKN036 17/16 Q1018 NOSIG
cycle: 1

Station Type Date Time Source
ZPPP TAF 2022/06/30 18:03 UTC NOAA

TAF ZPPP 301510Z 3018/0118 06004MPS 9999 SCT026 BKN040 TX21/0108Z TN15/3023Z

Example: see airport list